Pagina principale
METAR-TAF:

METAR-TAF

Aeroporti :

Aeroporto di Decimomannu

Decimomannu, Italia

latitudine: 39-21N, longitudine: 008-58E, altezza: 29 m

Osservazione

Il bollettino è stato emesso 1 ora e 23 minuti fa, alle 14:55 UTC
Vento 14 kt da sud-est
Temperature 25°C
Umidità 57%
Pressione 1014 hPa
Visibilità 10 km o più
Nubi sparse ad un'altezza di 3000 ft

METAR: LIED 311455Z 14014KT 9999 SCT030 25/16 Q1014 RMK SCT VIS MIN 9999 WIND THR35 14015KT WIND THR17 /////KT BLU

Ora: 18:18 (16:18 UTC)

Previsione

Il bollettino è stato emesso 2 ore e 18 minuti fa, alle 14:00 UTC
Previsione valida dal 31 alle 15 UTC al 31 alle 24 UTC
Vento 13 kt da sud-est
Visibilità 10 km o più
Nubi sparse ad un'altezza di 2500 ft
Evoluzione graduale
dal 31 alle 18 UTC al 31 alle 20 UTC
Vento 3 kt da direzioni variabili
Visibilità 10 km o più
nessuna nube inferiore a 1500 m e nessun cumulonembo

TAF: LIED 311400Z 3115/3124 14013KT 9999 SCT025 BECMG 3118/3120 VRB03KT CAVOK

Osservazioni e previsioni meteorologiche di più di 4000 aeroporti (messaggi METAR e TAF).

Le stazioni disponibili sono rappresentate dai dischi gialli e rossi sulla carta.

Puntare il mouse per vedere il nome della stazione.

Clicca sopra per visualizzare le osservazioni e previsioni meteorologiche.

Per cambiare la mappa : fare clic sui pulsanti verdi con una croce nera per ingrandire, il pulsante verde con un trattino per diminuire, o sulla freccia verde per le mappe adiacenti.


METAR-TAF: